Terminal Aerodrome Forecast
Issued by NWS

Home | Current Version | Previous Version | Graphics & Text | Print | Product List | Glossary On
Versions: 1 2 3 4 5 6 7 8 9 10 11 12 13 14 15 16 17 18 19 20 21 22 23 24
000
FTUS43 KFGF 211100
TAFBJI
TAF
KBJI 211139Z 2112/2212 31004KT P6SM OVC006
      TEMPO 2112/2116 4SM -DZ BR
     FM211600 33009KT P6SM OVC010
     FM220300 25003KT P6SM SCT025=

USA.gov is the U.S. government's official web portal to all federal, state and local government web resources and services.